Time;durP1;ratioP1;P1;durP2;ratioP2;P2;SDS_P1;SDS_P2;PMS_P1;PMS_P2;Temp;Humidity;BMP_temperature;BMP_pressure;BME280_temperature;BME280_humidity;BME280_pressure;Samples;Min_cycle;Max_cycle;Signal;HPM_P1;HPM_P2
2022/02/25 00:00:03;;;;;;;8.53;2.40;;;9.10;99.90;;;;;;5079967;28;20328;-66
2022/02/25 00:02:30;;;;;;;5.67;1.77;;;9.10;99.90;;;;;;5070113;28;20544;-66
2022/02/25 00:04:56;;;;;;;6.97;1.30;;;9.10;99.90;;;;;;5078684;28;20543;-65
2022/02/25 00:07:22;;;;;;;8.80;1.33;;;9.10;99.90;;;;;;5075108;28;20192;-65
2022/02/25 00:09:49;;;;;;;7.67;1.87;;;9.10;99.90;;;;;;5084867;28;20186;-65
2022/02/25 00:12:15;;;;;;;4.73;1.27;;;9.10;99.90;;;;;;5081854;28;20228;-66
2022/02/25 00:14:41;;;;;;;9.30;1.10;;;9.10;99.90;;;;;;5084693;28;20217;-67
2022/02/25 00:17:08;;;;;;;5.73;1.20;;;9.10;99.90;;;;;;5069609;28;20194;-65
2022/02/25 00:19:34;;;;;;;5.83;1.20;;;9.10;99.90;;;;;;5077906;28;20178;-65
2022/02/25 00:22:00;;;;;;;6.60;1.20;;;9.10;99.90;;;;;;5068614;28;20198;-67
2022/02/25 00:24:26;;;;;;;5.37;1.20;;;9.10;99.90;;;;;;5089102;28;20273;-65
2022/02/25 00:26:53;;;;;;;6.23;1.10;;;9.20;99.90;;;;;;5086261;28;20273;-64
2022/02/25 00:29:19;;;;;;;5.30;1.30;;;9.20;99.90;;;;;;5074125;28;20194;-65
2022/02/25 00:31:46;;;;;;;5.50;1.30;;;9.20;99.90;;;;;;5069448;28;20184;-65
2022/02/25 00:34:12;;;;;;;7.67;1.27;;;9.20;99.90;;;;;;5070939;28;20696;-65
2022/02/25 00:36:38;;;;;;;4.17;1.10;;;9.20;99.90;;;;;;5081263;28;20195;-66
2022/02/25 00:39:05;;;;;;;3.67;1.20;;;9.20;99.90;;;;;;5078404;28;20240;-66
2022/02/25 00:41:31;;;;;;;5.33;0.80;;;9.20;99.90;;;;;;5072156;28;20190;-64
2022/02/25 00:43:57;;;;;;;6.07;1.37;;;9.20;99.90;;;;;;5068355;28;20187;-65
2022/02/25 00:46:24;;;;;;;5.30;1.20;;;9.20;99.90;;;;;;5083886;28;20267;-66
2022/02/25 00:48:51;;;;;;;7.83;1.33;;;9.20;99.90;;;;;;5084874;28;20319;-65
2022/02/25 00:51:18;;;;;;;9.27;1.20;;;9.20;99.90;;;;;;5065958;28;20194;-67
2022/02/25 00:53:44;;;;;;;7.10;1.20;;;9.20;99.90;;;;;;5086353;28;20245;-65
2022/02/25 00:56:11;;;;;;;3.77;1.10;;;9.20;99.90;;;;;;5065702;28;20236;-67
2022/02/25 00:58:37;;;;;;;5.57;1.03;;;9.20;99.90;;;;;;5073066;28;20186;-66
2022/02/25 01:01:03;;;;;;;7.67;1.10;;;9.20;99.90;;;;;;5075038;28;20183;-66
2022/02/25 01:03:30;;;;;;;4.97;1.13;;;9.20;99.90;;;;;;5075262;28;20427;-65
2022/02/25 01:05:56;;;;;;;6.83;1.30;;;9.20;99.90;;;;;;5066524;28;20194;-65
2022/02/25 01:08:23;;;;;;;12.60;1.77;;;9.20;99.90;;;;;;5082072;28;20206;-64
2022/02/25 01:10:49;;;;;;;6.93;1.30;;;9.20;99.90;;;;;;5071212;28;20240;-65
2022/02/25 01:13:15;;;;;;;7.87;1.30;;;9.20;99.90;;;;;;5087073;28;20195;-66
2022/02/25 01:15:42;;;;;;;9.10;1.33;;;9.20;99.90;;;;;;5081589;28;20816;-64
2022/02/25 01:18:08;;;;;;;5.17;1.23;;;9.20;99.90;;;;;;5088001;28;20217;-65
2022/02/25 01:20:35;;;;;;;4.47;1.00;;;9.20;99.90;;;;;;5071867;28;20743;-67
2022/02/25 01:23:01;;;;;;;9.93;1.37;;;9.20;99.90;;;;;;5071414;28;20183;-64
2022/02/25 01:25:28;;;;;;;4.37;0.83;;;9.20;99.90;;;;;;5084176;28;20601;-66
2022/02/25 01:27:54;;;;;;;6.90;1.03;;;9.20;99.90;;;;;;5086564;28;20208;-65
2022/02/25 01:30:21;;;;;;;5.00;1.57;;;9.20;99.90;;;;;;5082548;28;20183;-64
2022/02/25 01:32:48;;;;;;;4.07;1.10;;;9.20;99.90;;;;;;5061089;28;20292;-65
2022/02/25 01:35:15;;;;;;;4.30;1.27;;;9.30;99.90;;;;;;5071794;28;20232;-64
2022/02/25 01:37:41;;;;;;;9.03;1.53;;;9.30;99.90;;;;;;5068852;28;20719;-64
2022/02/25 01:40:09;;;;;;;12.30;1.57;;;9.30;99.90;;;;;;5081615;28;20182;-66
2022/02/25 01:42:47;;;;;;;6.17;1.43;;;9.30;99.90;;;;;;5079405;28;20739;-63
2022/02/25 01:45:15;;;;;;;5.00;1.17;;;9.30;99.90;;;;;;5080805;28;20190;-65
2022/02/25 01:47:42;;;;;;;9.70;1.30;;;9.30;99.90;;;;;;5063602;28;20281;-67
2022/02/25 01:50:10;;;;;;;4.83;1.03;;;9.30;99.90;;;;;;5069320;28;20190;-65
2022/02/25 01:52:43;;;;;;;6.33;1.37;;;9.40;99.90;;;;;;5073814;28;20905;-67
2022/02/25 01:55:10;;;;;;;8.10;1.40;;;9.40;99.90;;;;;;5074067;28;20226;-64
2022/02/25 01:57:36;;;;;;;7.20;1.70;;;9.30;99.90;;;;;;5071190;28;20187;-65
2022/02/25 02:00:04;;;;;;;5.63;1.20;;;9.30;99.90;;;;;;5080062;28;20247;-65
2022/02/25 02:02:30;;;;;;;5.77;1.47;;;9.30;99.90;;;;;;5075630;28;20186;-66
2022/02/25 02:04:58;;;;;;;6.80;1.17;;;9.30;99.90;;;;;;5083870;28;20390;-65
2022/02/25 02:07:24;;;;;;;7.37;1.17;;;9.30;99.90;;;;;;5070454;28;20190;-64
2022/02/25 02:09:50;;;;;;;5.47;1.37;;;9.40;99.90;;;;;;5074944;28;20195;-65
2022/02/25 02:12:17;;;;;;;9.40;1.53;;;9.30;99.90;;;;;;5073975;28;20241;-65
2022/02/25 02:14:47;;;;;;;4.60;1.03;;;9.30;99.90;;;;;;5067085;28;20307;-67
2022/02/25 02:17:14;;;;;;;4.33;1.13;;;9.30;99.90;;;;;;5051246;28;20239;-66
2022/02/25 02:19:41;;;;;;;7.10;1.17;;;9.40;99.90;;;;;;5055221;28;20186;-64
2022/02/25 02:22:08;;;;;;;7.97;1.30;;;9.30;99.90;;;;;;5068575;28;20189;-64
2022/02/25 02:24:35;;;;;;;7.43;1.40;;;9.30;99.90;;;;;;5062150;28;20186;-65
2022/02/25 02:27:01;;;;;;;5.27;1.07;;;9.30;99.90;;;;;;5060345;28;20535;-65
2022/02/25 02:29:27;;;;;;;4.27;1.10;;;9.30;99.90;;;;;;5081678;28;20686;-65
2022/02/25 02:31:54;;;;;;;7.13;0.93;;;9.30;99.90;;;;;;5074829;28;20206;-66
2022/02/25 02:34:21;;;;;;;5.17;1.10;;;9.30;99.90;;;;;;5073000;28;20210;-67
2022/02/25 02:36:47;;;;;;;4.40;0.87;;;9.30;99.90;;;;;;5107084;27;20643;-65
2022/02/25 02:39:15;;;;;;;10.00;1.23;;;9.30;99.90;;;;;;5067854;28;20190;-65
2022/02/25 02:41:48;;;;;;;5.87;1.33;;;9.30;99.90;;;;;;5066620;28;20182;-64
2022/02/25 02:44:15;;;;;;;2.70;0.90;;;9.30;99.90;;;;;;5074538;28;20194;-66
2022/02/25 02:46:44;;;;;;;10.43;1.50;;;9.30;99.90;;;;;;5064823;28;20198;-66
2022/02/25 02:49:12;;;;;;;3.73;0.87;;;9.30;99.90;;;;;;5058223;28;20216;-65
2022/02/25 02:51:38;;;;;;;5.07;0.90;;;9.30;99.90;;;;;;5080342;28;20592;-67
2022/02/25 02:54:04;;;;;;;6.33;0.93;;;9.30;99.90;;;;;;5074541;28;20237;-66
2022/02/25 02:56:31;;;;;;;3.47;0.97;;;9.30;99.90;;;;;;5086535;28;20667;-67
2022/02/25 02:58:57;;;;;;;3.10;1.00;;;9.30;99.90;;;;;;5076815;28;20209;-66
2022/02/25 03:01:28;;;;;;;1.57;0.70;;;9.30;99.90;;;;;;5078135;28;20218;-64
2022/02/25 03:03:56;;;;;;;2.57;1.03;;;9.40;99.90;;;;;;5066687;28;20197;-66
2022/02/25 03:06:28;;;;;;;2.97;0.93;;;9.40;99.90;;;;;;5079217;28;21108;-65
2022/02/25 03:08:55;;;;;;;6.03;1.00;;;9.40;99.90;;;;;;5059082;28;20285;-66
2022/02/25 03:11:25;;;;;;;4.33;1.07;;;9.40;99.90;;;;;;5081513;28;20190;-66
2022/02/25 03:13:52;;;;;;;4.23;0.87;;;9.40;99.90;;;;;;5069574;28;20308;-64
2022/02/25 03:16:19;;;;;;;2.50;0.70;;;9.40;99.90;;;;;;5063777;28;20681;-64
2022/02/25 03:18:45;;;;;;;5.97;1.13;;;9.40;99.90;;;;;;5070860;28;20186;-63
2022/02/25 03:21:13;;;;;;;3.57;1.43;;;9.40;99.90;;;;;;5071373;28;20183;-64
2022/02/25 03:23:39;;;;;;;3.47;0.80;;;9.40;99.90;;;;;;5068757;28;20521;-65
2022/02/25 03:26:07;;;;;;;3.53;0.77;;;9.40;99.90;;;;;;5067892;28;20198;-66
2022/02/25 03:28:33;;;;;;;3.13;0.70;;;9.40;99.90;;;;;;5063432;28;20190;-68
2022/02/25 03:31:00;;;;;;;4.63;1.17;;;9.40;99.90;;;;;;5073789;28;20186;-65
2022/02/25 03:33:27;;;;;;;5.80;0.97;;;9.40;99.90;;;;;;5081902;28;20298;-64
2022/02/25 03:35:54;;;;;;;8.37;1.83;;;9.40;99.90;;;;;;5078378;28;20190;-64
2022/02/25 03:38:23;;;;;;;5.00;0.90;;;9.40;99.90;;;;;;5074541;28;20210;-65
2022/02/25 03:40:50;;;;;;;5.17;1.13;;;9.40;99.90;;;;;;5074063;28;20183;-66
2022/02/25 03:43:17;;;;;;;4.97;1.00;;;9.40;99.90;;;;;;5076806;28;20202;-66
2022/02/25 03:45:44;;;;;;;3.10;1.20;;;9.40;99.90;;;;;;5071936;28;20186;-66
2022/02/25 03:48:12;;;;;;;1.67;0.83;;;9.40;99.90;;;;;;5068187;28;21616;-65
2022/02/25 03:50:39;;;;;;;3.87;0.93;;;9.50;99.90;;;;;;5081762;28;20185;-64
2022/02/25 03:53:05;;;;;;;4.30;1.30;;;9.50;99.90;;;;;;5066124;28;20785;-66
2022/02/25 03:55:33;;;;;;;3.77;0.80;;;9.40;99.90;;;;;;5061606;28;20616;-65
2022/02/25 03:58:00;;;;;;;6.47;1.10;;;9.50;99.90;;;;;;5063393;28;20555;-66
2022/02/25 04:00:27;;;;;;;5.60;0.80;;;9.50;99.90;;;;;;5084969;28;20187;-65
2022/02/25 04:02:55;;;;;;;3.23;0.70;;;9.50;99.90;;;;;;5095103;28;20248;-65
2022/02/25 04:05:22;;;;;;;4.33;1.10;;;9.50;99.90;;;;;;5075739;28;20193;-67
2022/02/25 04:07:50;;;;;;;4.53;1.00;;;9.50;99.90;;;;;;5078494;28;20178;-65
2022/02/25 04:10:17;;;;;;;3.70;0.90;;;9.50;99.90;;;;;;5087903;28;20171;-66
2022/02/25 04:12:44;;;;;;;3.70;0.80;;;9.50;99.90;;;;;;5084295;28;20188;-67
2022/02/25 04:15:11;;;;;;;2.73;0.67;;;9.50;99.90;;;;;;5068816;28;20264;-65
2022/02/25 04:17:38;;;;;;;2.83;0.80;;;9.50;99.90;;;;;;5092870;28;20958;-66
2022/02/25 04:20:06;;;;;;;7.37;0.70;;;9.50;99.90;;;;;;5081318;28;20677;-66
2022/02/25 04:22:33;;;;;;;2.20;1.03;;;9.50;99.90;;;;;;5085545;28;20935;-65
2022/02/25 04:24:59;;;;;;;3.73;0.70;;;9.50;99.90;;;;;;5099338;28;20197;-65
2022/02/25 04:27:26;;;;;;;2.97;0.83;;;9.50;99.90;;;;;;5078741;28;20190;-67
2022/02/25 04:29:52;;;;;;;0.83;0.53;;;9.50;99.90;;;;;;5098721;28;20285;-65
2022/02/25 04:32:18;;;;;;;3.13;0.70;;;9.50;99.90;;;;;;5079901;28;20602;-68
2022/02/25 04:34:48;;;;;;;4.40;0.73;;;9.50;99.90;;;;;;5069524;28;20198;-67
2022/02/25 04:37:15;;;;;;;3.20;0.93;;;9.50;99.90;;;;;;5063734;28;20233;-64
2022/02/25 04:39:41;;;;;;;3.13;0.80;;;9.50;99.90;;;;;;5070193;28;20182;-65
2022/02/25 04:42:08;;;;;;;2.97;0.70;;;9.60;99.90;;;;;;5064331;28;20197;-65
2022/02/25 04:44:34;;;;;;;5.07;1.03;;;9.60;99.90;;;;;;5078769;28;20217;-66
2022/02/25 04:47:01;;;;;;;5.07;1.23;;;9.60;99.90;;;;;;5077690;28;20244;-66
2022/02/25 04:49:27;;;;;;;7.90;0.70;;;9.60;99.90;;;;;;5064542;28;21024;-65
2022/02/25 04:51:54;;;;;;;3.70;0.87;;;9.70;99.90;;;;;;5071627;28;20370;-65
2022/02/25 04:54:21;;;;;;;4.00;0.80;;;9.70;99.90;;;;;;5075675;28;20613;-65
2022/02/25 04:56:47;;;;;;;2.93;0.70;;;9.70;99.90;;;;;;5064905;28;20186;-65
2022/02/25 04:59:14;;;;;;;5.30;0.93;;;9.70;99.90;;;;;;5091227;28;20264;-66
2022/02/25 05:01:41;;;;;;;4.73;0.70;;;9.80;99.90;;;;;;5084037;28;20187;-65
2022/02/25 05:04:07;;;;;;;1.50;0.77;;;9.80;99.90;;;;;;5095190;28;20201;-66
2022/02/25 05:06:36;;;;;;;2.43;0.67;;;9.80;99.90;;;;;;5084949;28;20319;-66
2022/02/25 05:09:02;;;;;;;5.53;1.07;;;9.80;99.90;;;;;;5087572;28;20220;-64
2022/02/25 05:11:28;;;;;;;4.00;0.90;;;9.90;99.90;;;;;;5079819;28;20178;-65
2022/02/25 05:13:56;;;;;;;4.37;0.90;;;9.90;99.90;;;;;;5079482;28;20207;-66
2022/02/25 05:21:53;;;;;;;6.73;1.00;;;10.10;99.90;;;;;;5096163;28;20186;-66
2022/02/25 05:24:20;;;;;;;2.90;0.70;;;10.20;99.90;;;;;;5071144;28;20203;-66
2022/02/25 05:26:47;;;;;;;2.17;0.60;;;10.20;99.90;;;;;;5083976;28;20225;-66
2022/02/25 05:29:13;;;;;;;2.50;0.67;;;10.20;99.90;;;;;;5068234;28;20248;-66
2022/02/25 05:31:40;;;;;;;5.20;0.90;;;10.30;99.90;;;;;;5072740;28;20186;-65
2022/02/25 05:34:07;;;;;;;4.77;0.97;;;10.40;99.90;;;;;;5070296;28;20206;-66
2022/02/25 05:36:36;;;;;;;2.43;0.80;;;10.40;99.90;;;;;;5088810;28;20222;-64
2022/02/25 05:39:03;;;;;;;3.07;0.70;;;10.40;99.90;;;;;;5090173;28;20187;-65
2022/02/25 05:41:30;;;;;;;4.87;1.10;;;10.40;99.90;;;;;;5090203;28;20741;-68
2022/02/25 05:43:57;;;;;;;1.90;0.90;;;10.40;99.90;;;;;;5058769;28;20225;-64
2022/02/25 05:46:24;;;;;;;4.70;0.90;;;10.30;99.90;;;;;;5080839;28;20305;-66
2022/02/25 05:48:50;;;;;;;2.50;0.90;;;10.40;99.90;;;;;;5078550;28;20217;-64
2022/02/25 05:51:18;;;;;;;6.67;0.90;;;10.30;99.90;;;;;;5052224;28;20191;-64
2022/02/25 05:53:44;;;;;;;3.63;1.07;;;10.30;99.90;;;;;;5083642;28;20306;-66
2022/02/25 05:56:10;;;;;;;3.37;0.83;;;10.30;99.90;;;;;;5078054;28;20194;-66
2022/02/25 05:58:37;;;;;;;6.53;1.50;;;10.30;99.90;;;;;;5065073;28;20243;-66
2022/02/25 06:01:04;;;;;;;4.47;1.13;;;10.20;99.90;;;;;;5088283;28;20170;-65
2022/02/25 06:03:30;;;;;;;7.53;1.00;;;10.30;99.90;;;;;;5088386;28;20182;-68
2022/02/25 06:05:57;;;;;;;4.60;1.00;;;10.20;99.90;;;;;;5054938;28;20863;-65
2022/02/25 06:08:23;;;;;;;4.87;1.60;;;10.20;99.90;;;;;;5069990;28;20225;-65
2022/02/25 06:10:50;;;;;;;6.10;1.20;;;10.20;99.90;;;;;;5085282;28;20282;-65
2022/02/25 06:13:17;;;;;;;4.00;1.20;;;10.30;99.90;;;;;;5087372;28;20190;-65
2022/02/25 06:15:45;;;;;;;5.60;0.87;;;10.30;99.90;;;;;;5070291;28;20190;-65
2022/02/25 06:18:13;;;;;;;3.00;0.80;;;10.30;99.90;;;;;;5085286;28;20650;-68
2022/02/25 06:20:40;;;;;;;3.23;1.00;;;10.30;99.90;;;;;;5084250;28;20773;-66
2022/02/25 06:23:08;;;;;;;4.53;0.80;;;10.40;99.90;;;;;;5068554;28;20277;-66
2022/02/25 06:25:36;;;;;;;2.10;0.83;;;10.40;99.90;;;;;;5064106;28;20666;-66
2022/02/25 06:28:04;;;;;;;1.53;0.80;;;10.40;99.90;;;;;;5069383;28;20191;-66
2022/02/25 06:30:31;;;;;;;4.20;0.90;;;10.50;99.90;;;;;;5090085;28;20285;-66
2022/02/25 06:32:58;;;;;;;3.23;0.83;;;10.60;99.90;;;;;;5089431;28;20194;-66
2022/02/25 06:35:28;;;;;;;5.57;1.10;;;10.50;99.90;;;;;;5083842;28;20595;-66
2022/02/25 06:37:56;;;;;;;2.50;0.80;;;10.60;99.90;;;;;;5100773;28;20190;-67
2022/02/25 06:40:23;;;;;;;3.90;0.80;;;10.60;99.90;;;;;;5067078;28;20190;-67
2022/02/25 06:42:50;;;;;;;4.50;0.90;;;10.70;99.90;;;;;;5069253;28;20225;-66
2022/02/25 06:45:17;;;;;;;4.00;1.03;;;10.70;99.90;;;;;;5050921;28;20270;-66
2022/02/25 06:47:44;;;;;;;2.80;0.80;;;10.70;99.90;;;;;;5081777;28;20640;-66
2022/02/25 06:50:12;;;;;;;3.83;0.87;;;10.80;99.90;;;;;;5067120;28;20187;-66
2022/02/25 06:52:38;;;;;;;3.20;0.97;;;10.90;99.90;;;;;;5067066;28;20273;-66
2022/02/25 06:55:07;;;;;;;2.80;0.80;;;10.90;99.90;;;;;;5056692;28;20691;-68
2022/02/25 06:57:34;;;;;;;8.67;1.17;;;11.00;99.90;;;;;;5079125;28;20207;-66
2022/02/25 07:00:00;;;;;;;2.40;0.80;;;11.00;99.90;;;;;;5096314;28;20191;-67
2022/02/25 07:02:27;;;;;;;2.97;0.70;;;11.10;99.90;;;;;;5079025;28;20689;-68
2022/02/25 07:04:53;;;;;;;1.57;0.63;;;11.10;99.90;;;;;;5081095;28;20730;-67
2022/02/25 07:07:20;;;;;;;0.87;0.50;;;11.20;99.90;;;;;;5092253;28;20197;-67
2022/02/25 07:09:46;;;;;;;2.47;0.67;;;11.20;99.90;;;;;;5080085;28;20205;-66
2022/02/25 07:12:12;;;;;;;2.17;0.70;;;11.20;99.90;;;;;;5079672;28;20190;-67
2022/02/25 07:14:38;;;;;;;1.63;0.90;;;11.30;99.90;;;;;;5057485;28;20221;-67
2022/02/25 07:17:05;;;;;;;1.60;0.80;;;11.40;99.90;;;;;;5075384;28;20285;-67
2022/02/25 07:19:31;;;;;;;2.30;0.63;;;11.40;99.90;;;;;;5077373;28;20273;-67
2022/02/25 07:21:58;;;;;;;2.03;0.60;;;11.40;99.90;;;;;;5081139;28;20630;-67
2022/02/25 07:24:24;;;;;;;1.43;0.70;;;11.50;99.90;;;;;;5070525;28;20196;-67
2022/02/25 07:26:51;;;;;;;5.23;0.70;;;11.40;99.90;;;;;;5088681;28;20186;-67
2022/02/25 07:29:17;;;;;;;2.40;0.60;;;11.40;99.90;;;;;;5065845;28;20245;-66
2022/02/25 07:31:44;;;;;;;0.67;0.40;;;11.40;99.90;;;;;;5066379;28;20175;-66
2022/02/25 07:34:10;;;;;;;1.20;0.50;;;11.40;99.90;;;;;;5067031;28;20215;-66
2022/02/25 07:36:39;;;;;;;1.77;0.57;;;11.50;99.90;;;;;;5069335;28;20234;-66
2022/02/25 07:39:09;;;;;;;7.83;0.97;;;11.50;99.90;;;;;;5065971;28;20202;-66
2022/02/25 07:41:36;;;;;;;2.70;0.90;;;11.50;99.90;;;;;;5067922;28;20189;-67
2022/02/25 07:44:03;;;;;;;2.20;0.50;;;11.50;99.90;;;;;;5049077;28;20195;-68
2022/02/25 07:46:30;;;;;;;3.00;0.87;;;11.50;99.90;;;;;;5051745;28;20190;-66
2022/02/25 07:48:56;;;;;;;3.27;0.70;;;11.50;99.90;;;;;;5049327;28;20251;-68
2022/02/25 07:51:23;;;;;;;4.03;0.77;;;11.50;99.90;;;;;;5068618;28;20264;-67
2022/02/25 07:53:49;;;;;;;3.47;0.93;;;11.60;99.90;;;;;;5067484;28;20706;-67
2022/02/25 07:56:16;;;;;;;1.80;0.50;;;11.70;99.90;;;;;;5067586;28;20179;-67
2022/02/25 07:58:43;;;;;;;5.83;0.83;;;11.70;99.90;;;;;;5072558;28;20871;-67
2022/02/25 08:01:10;;;;;;;2.93;0.90;;;11.80;99.90;;;;;;5077029;28;20186;-66
2022/02/25 08:03:37;;;;;;;3.83;0.70;;;11.80;99.90;;;;;;5085677;28;20788;-66
2022/02/25 08:06:04;;;;;;;3.50;0.60;;;11.90;99.90;;;;;;5087256;28;20328;-66
2022/02/25 08:08:32;;;;;;;4.70;0.90;;;11.90;99.90;;;;;;5056230;28;20194;-68
2022/02/25 08:10:58;;;;;;;3.57;0.90;;;11.90;99.90;;;;;;5077752;28;20198;-66
2022/02/25 08:13:25;;;;;;;2.30;1.03;;;12.00;99.90;;;;;;5054386;28;20190;-66
2022/02/25 08:15:51;;;;;;;3.27;0.83;;;12.00;99.90;;;;;;5082558;28;20210;-66
2022/02/25 08:18:18;;;;;;;3.70;0.70;;;12.10;99.90;;;;;;5068436;28;20178;-67
2022/02/25 08:20:44;;;;;;;4.00;1.00;;;12.10;99.90;;;;;;5073365;28;20191;-67
2022/02/25 08:23:11;;;;;;;2.10;0.70;;;12.20;99.90;;;;;;5083759;28;20218;-67
2022/02/25 08:25:38;;;;;;;1.93;0.73;;;12.20;99.90;;;;;;5079659;28;20888;-67
2022/02/25 08:28:08;;;;;;;1.73;0.70;;;12.20;99.90;;;;;;5057812;28;20642;-67
2022/02/25 08:30:37;;;;;;;1.00;0.60;;;12.30;99.90;;;;;;5084956;28;20881;-67
2022/02/25 08:33:04;;;;;;;2.97;0.77;;;12.50;99.90;;;;;;5093128;28;20209;-67
2022/02/25 08:35:34;;;;;;;4.10;0.70;;;12.50;99.90;;;;;;5082537;28;20535;-67
2022/02/25 08:38:06;;;;;;;2.13;0.90;;;12.50;99.90;;;;;;5093245;28;20270;-67
2022/02/25 08:40:35;;;;;;;3.67;0.97;;;12.50;99.90;;;;;;5088798;28;20284;-67
2022/02/25 08:43:03;;;;;;;1.40;0.67;;;12.50;99.90;;;;;;5089834;28;20275;-66
2022/02/25 08:45:32;;;;;;;4.07;0.80;;;12.50;99.90;;;;;;5071696;28;20311;-67
2022/02/25 08:47:59;;;;;;;3.50;0.60;;;12.40;99.90;;;;;;5080015;28;20252;-67
2022/02/25 08:50:26;;;;;;;3.07;1.00;;;12.30;99.90;;;;;;5076791;28;20187;-67
2022/02/25 08:52:55;;;;;;;1.40;0.50;;;12.30;99.90;;;;;;5070201;28;20252;-67
2022/02/25 08:55:23;;;;;;;3.23;1.10;;;12.30;99.90;;;;;;5078984;28;20234;-67
2022/02/25 08:57:50;;;;;;;2.53;0.63;;;12.30;99.90;;;;;;5086866;28;20193;-67
2022/02/25 09:00:22;;;;;;;2.63;0.80;;;12.20;99.90;;;;;;5084819;28;20197;-67
2022/02/25 09:02:51;;;;;;;1.87;0.60;;;12.30;99.90;;;;;;5077697;28;20202;-67
2022/02/25 09:05:21;;;;;;;1.47;0.60;;;12.30;99.90;;;;;;5075353;28;20187;-67
2022/02/25 09:07:51;;;;;;;4.43;1.00;;;12.30;99.90;;;;;;5072832;28;20202;-67
2022/02/25 09:10:18;;;;;;;2.20;1.00;;;12.40;99.90;;;;;;5065802;28;20285;-67
2022/02/25 09:12:48;;;;;;;3.00;1.17;;;12.40;99.90;;;;;;5085640;28;20261;-67
2022/02/25 09:15:25;;;;;;;4.20;1.50;;;12.40;99.90;;;;;;5085865;28;20290;-68
2022/02/25 09:17:56;;;;;;;3.13;1.10;;;12.30;99.90;;;;;;5087495;28;20182;-66
2022/02/25 09:20:24;;;;;;;2.60;1.20;;;12.30;99.90;;;;;;5077244;28;20186;-66
2022/02/25 09:22:51;;;;;;;2.50;1.07;;;12.30;99.90;;;;;;5086617;28;20197;-66
2022/02/25 09:25:20;;;;;;;1.93;1.20;;;12.20;99.90;;;;;;5077321;28;20252;-67
2022/02/25 09:27:47;;;;;;;4.00;1.30;;;12.20;99.90;;;;;;5075553;28;20190;-66
2022/02/25 09:30:15;;;;;;;6.83;1.20;;;12.20;99.90;;;;;;5076862;28;20206;-65
2022/02/25 09:32:42;;;;;;;3.20;1.13;;;12.30;99.90;;;;;;5090427;28;20233;-66
2022/02/25 09:35:10;;;;;;;4.87;1.33;;;12.50;99.90;;;;;;5080219;28;20305;-67
2022/02/25 09:37:37;;;;;;;6.43;1.10;;;12.60;99.90;;;;;;5063049;28;20190;-67
2022/02/25 09:40:10;;;;;;;7.30;1.37;;;12.80;99.90;;;;;;5060335;28;20183;-66
2022/02/25 09:42:39;;;;;;;3.60;1.10;;;12.90;99.90;;;;;;5070657;28;20218;-66
2022/02/25 09:45:12;;;;;;;5.07;1.17;;;12.70;99.90;;;;;;5073150;28;20198;-66
2022/02/25 09:47:40;;;;;;;6.07;1.17;;;12.50;99.90;;;;;;5072795;28;20718;-65
2022/02/25 09:50:18;;;;;;;6.43;1.50;;;12.40;99.90;;;;;;5072122;28;20496;-65
2022/02/25 09:52:46;;;;;;;4.03;1.20;;;12.30;99.90;;;;;;5080178;28;20186;-65
2022/02/25 09:55:32;;;;;;;2.87;0.90;;;12.20;99.90;;;;;;5060949;28;20288;-65
2022/02/25 09:58:05;;;;;;;4.80;1.17;;;12.10;99.90;;;;;;5083611;28;20729;-65
2022/02/25 10:00:36;;;;;;;3.10;1.00;;;12.10;99.90;;;;;;5076789;28;20186;-65
2022/02/25 10:03:07;;;;;;;2.07;0.77;;;12.10;99.90;;;;;;5090022;28;20194;-66
2022/02/25 10:05:35;;;;;;;1.80;1.17;;;12.20;99.90;;;;;;5077395;28;20202;-65
2022/02/25 10:08:29;;;;;;;1.00;0.70;;;12.20;99.90;;;;;;5071043;28;20335;-65
2022/02/25 10:10:59;;;;;;;3.37;1.00;;;12.10;99.90;;;;;;5052947;28;20248;-66
2022/02/25 10:13:28;;;;;;;0.83;0.70;;;12.00;99.90;;;;;;5082785;28;20194;-67
2022/02/25 10:16:00;;;;;;;2.43;1.13;;;11.90;99.90;;;;;;5077760;28;20186;-66
2022/02/25 10:18:34;;;;;;;4.83;1.07;;;11.90;99.90;;;;;;5085673;28;20749;-66
2022/02/25 10:21:11;;;;;;;2.47;1.03;;;11.90;99.90;;;;;;5085875;28;20626;-67
2022/02/25 10:23:42;;;;;;;1.20;0.97;;;11.90;99.90;;;;;;5083730;28;20190;-66
2022/02/25 10:26:18;;;;;;;1.03;0.90;;;11.90;99.90;;;;;;5051745;28;20186;-66
2022/02/25 10:28:49;;;;;;;1.57;1.00;;;11.90;99.90;;;;;;5072972;28;20193;-66
2022/02/25 10:31:36;;;;;;;2.77;1.07;;;11.80;99.90;;;;;;5055675;28;20289;-66
2022/02/25 10:34:16;;;;;;;6.33;1.00;;;11.80;99.90;;;;;;5067228;28;20206;-66
2022/02/25 10:36:48;;;;;;;2.93;1.00;;;11.90;99.90;;;;;;5068190;28;20193;-65
2022/02/25 10:39:30;;;;;;;2.27;1.10;;;12.10;99.90;;;;;;5068189;28;20190;-67
2022/02/25 10:42:08;;;;;;;2.57;0.90;;;12.40;99.90;;;;;;5080929;28;20191;-66
2022/02/25 10:44:42;;;;;;;6.83;0.90;;;12.60;99.90;;;;;;5075869;28;20240;-66
2022/02/25 10:47:26;;;;;;;2.10;1.00;;;12.50;99.90;;;;;;5078961;28;20197;-66
2022/02/25 10:50:20;;;;;;;3.30;0.80;;;12.40;99.90;;;;;;5094243;28;20197;-66
2022/02/25 10:52:48;;;;;;;4.57;1.10;;;12.30;99.90;;;;;;5075308;28;20731;-65
2022/02/25 10:55:24;;;;;;;3.97;1.30;;;12.30;99.90;;;;;;5072079;28;20226;-66
2022/02/25 10:57:57;;;;;;;2.17;1.17;;;12.40;99.90;;;;;;5067458;28;20741;-65
2022/02/25 11:00:26;;;;;;;3.63;0.90;;;12.50;99.90;;;;;;5076346;28;20249;-67
2022/02/25 11:03:01;;;;;;;6.77;2.13;;;12.70;99.90;;;;;;5072468;28;20205;-66
2022/02/25 11:05:34;;;;;;;1.67;0.90;;;13.30;99.90;;;;;;5086180;28;20242;-66
2022/02/25 11:08:03;;;;;;;2.80;1.00;;;13.90;99.90;;;;;;5077658;28;20190;-66
2022/02/25 11:10:36;;;;;;;7.67;1.50;;;14.20;99.90;;;;;;5070420;28;20191;-66
2022/02/25 11:13:06;;;;;;;10.67;1.40;;;14.50;99.90;;;;;;5078442;28;20186;-66
2022/02/25 11:15:39;;;;;;;3.40;0.90;;;14.60;99.90;;;;;;5054480;28;20607;-65
2022/02/25 11:18:07;;;;;;;3.90;1.13;;;14.70;99.90;;;;;;5084994;28;20197;-66
2022/02/25 11:20:36;;;;;;;3.67;0.83;;;14.60;99.90;;;;;;5078278;28;20292;-65
2022/02/25 11:23:14;;;;;;;4.27;0.73;;;14.60;99.90;;;;;;5075416;28;20190;-66
2022/02/25 11:25:44;;;;;;;3.83;0.93;;;14.40;99.90;;;;;;5060409;28;20276;-65
2022/02/25 11:28:13;;;;;;;5.93;1.20;;;14.30;99.90;;;;;;5068842;28;20557;-66
2022/02/25 11:31:10;;;;;;;2.63;1.20;;;14.20;99.90;;;;;;5061751;28;20221;-65
2022/02/25 11:33:38;;;;;;;2.80;1.20;;;14.00;99.90;;;;;;5067659;28;20229;-64
2022/02/25 11:36:11;;;;;;;3.40;1.10;;;13.90;99.90;;;;;;5091376;28;20259;-65
2022/02/25 11:38:45;;;;;;;3.73;0.90;;;13.90;99.90;;;;;;5079473;28;20192;-66
2022/02/25 11:41:26;;;;;;;2.00;0.87;;;14.10;99.90;;;;;;5084166;28;20196;-66
2022/02/25 11:43:59;;;;;;;4.33;1.00;;;14.30;99.90;;;;;;5064072;28;20678;-66
2022/02/25 11:46:28;;;;;;;1.80;0.70;;;14.40;99.90;;;;;;5071311;28;20225;-66
2022/02/25 11:49:08;;;;;;;1.77;0.87;;;14.50;99.90;;;;;;5080272;28;20190;-66
2022/02/25 11:51:49;;;;;;;4.67;1.27;;;14.60;99.90;;;;;;5071022;28;20197;-66
2022/02/25 11:55:06;;;;;;;4.13;1.37;;;14.30;99.90;;;;;;5083031;28;20213;-66
2022/02/25 11:57:08;;;;;;;5.93;0.90;;;14.00;99.90;;;;;;5075803;28;20293;-67
2022/02/25 11:59:34;;;;;;;6.00;1.00;;;13.90;99.90;;;;;;5079839;28;20248;-66
2022/02/25 12:02:18;;;;;;;2.17;0.80;;;13.90;99.90;;;;;;5077399;28;20182;-65
2022/02/25 12:05:08;;;;;;;5.13;1.00;;;13.90;99.90;;;;;;5076348;28;20708;-66
2022/02/25 12:07:47;;;;;;;2.17;0.67;;;14.00;99.90;;;;;;5070863;28;20186;-64
2022/02/25 12:10:22;;;;;;;3.57;1.20;;;14.20;99.90;;;;;;5081117;28;20190;-64
2022/02/25 12:12:56;;;;;;;5.07;1.20;;;14.10;99.90;;;;;;5067748;28;20276;-65
2022/02/25 12:15:36;;;;;;;3.03;1.00;;;14.00;99.90;;;;;;5084874;28;20218;-65
2022/02/25 12:18:09;;;;;;;3.27;0.90;;;13.90;99.90;;;;;;5070241;28;20187;-66
2022/02/25 12:20:48;;;;;;;1.63;0.93;;;13.90;99.90;;;;;;5073435;28;20187;-66
2022/02/25 12:23:21;;;;;;;4.00;1.00;;;13.80;99.90;;;;;;5081768;28;20190;-67
2022/02/25 12:26:00;;;;;;;3.40;1.50;;;13.80;99.90;;;;;;5060667;28;20221;-65
2022/02/25 12:28:30;;;;;;;3.63;0.90;;;13.70;99.90;;;;;;5079931;28;20678;-65
2022/02/25 12:31:02;;;;;;;3.70;1.30;;;13.60;99.90;;;;;;5077731;28;20221;-66
2022/02/25 12:33:41;;;;;;;6.30;1.27;;;13.50;99.90;;;;;;5079976;28;20221;-66
2022/02/25 12:36:13;;;;;;;2.23;1.00;;;13.50;99.90;;;;;;5074463;28;20208;-66
2022/02/25 12:38:44;;;;;;;3.23;1.00;;;13.50;99.90;;;;;;5074929;28;20278;-66
2022/02/25 12:41:25;;;;;;;3.73;0.90;;;13.40;99.90;;;;;;5103347;28;20813;-65
2022/02/25 12:44:00;;;;;;;4.30;1.40;;;13.40;99.90;;;;;;5077249;28;20563;-65
2022/02/25 12:46:46;;;;;;;2.93;0.90;;;13.30;99.90;;;;;;5076897;28;20196;-66
2022/02/25 12:49:20;;;;;;;2.80;1.03;;;13.20;99.90;;;;;;5060650;28;20277;-66
2022/02/25 12:51:48;;;;;;;5.37;1.30;;;13.10;99.90;;;;;;5095876;27;20228;-65
2022/02/25 12:54:20;;;;;;;3.60;1.13;;;13.10;99.90;;;;;;5077926;28;20214;-66
2022/02/25 12:56:51;;;;;;;2.80;0.97;;;13.20;99.90;;;;;;5079559;28;20281;-65
2022/02/25 12:59:31;;;;;;;5.47;1.30;;;13.30;99.90;;;;;;5063917;28;20220;-66
2022/02/25 13:02:00;;;;;;;4.57;1.13;;;13.40;99.90;;;;;;5072776;28;20214;-66
2022/02/25 13:04:30;;;;;;;5.87;1.00;;;13.30;99.90;;;;;;5079407;28;20194;-66